Clipper Vision — V7JC4 — position and weather

sailwx.info

Track history (hours):
 
Tides and Currents Weather Stations Pressure Air Temp Water Temp Dewpoint Dewpoint Depression Visibility Wind Speed Wind Dir Waves Ship Positions

Clipper Vision

Last reported at 2017-Nov-26 04:39 UTC. Time now 2017-Dec-18 09:13 UTC.
Position N 27°33' W 015°17'.
Warning: this ship's position is 22 days out of date.

Length 225 m; draft 13.5 m.

Type: Cargo ship. MMSI: 538006031.

Date/timePositionNaut miles runAvg speedWind from/ knotsBaromVisibWave heightAir tempDewpointWater temp
2017-Nov-26 04:39N 27°33' W 015°17'213.6
2017-Nov-26 04:30N 27°35' W 015°16'713.4
2017-Nov-26 04:00N 27°41' W 015°13'613.0
2017-Nov-26 03:30N 27°47' W 015°09'612.3
2017-Nov-26 03:00N 27°52' W 015°07'612.3
2017-Nov-26 02:30N 27°58' W 015°04'612.5
2017-Nov-26 02:00N 28°04' W 015°02'612.2
2017-Nov-26 01:30N 28°10' W 014°60'612.2
2017-Nov-26 01:00N 28°16' W 014°57'612.3
2017-Nov-26 00:30N 28°21' W 014°55'612.6
2017-Nov-26 00:00N 28°28' W 014°53'612.3
2017-Nov-25 23:30N 28°34' W 014°52'612.1
2017-Nov-25 23:00N 28°39' W 014°50'612.1
2017-Nov-25 22:30N 28°45' W 014°48'612.3
2017-Nov-25 22:00N 28°51' W 014°47'612.2
2017-Nov-25 21:30N 28°57' W 014°46'612.0
2017-Nov-25 21:00N 29°03' W 014°44'612.0
2017-Nov-25 20:30N 29°09' W 014°42'611.8
2017-Nov-25 20:00N 29°15' W 014°40'611.8
2017-Nov-25 19:30N 29°20' W 014°39'611.7
2017-Nov-25 19:00N 29°26' W 014°37'611.8
2017-Nov-25 18:30N 29°32' W 014°35'611.8
2017-Nov-25 18:00N 29°37' W 014°34'611.6
2017-Nov-25 17:30N 29°43' W 014°32'611.6
2017-Nov-25 17:00N 29°49' W 014°31'611.8
2017-Nov-25 16:30N 29°54' W 014°29'611.7
2017-Nov-25 16:00N 30°00' W 014°27'611.5
2017-Nov-25 15:30N 30°06' W 014°26'611.5
2017-Nov-25 14:57N 30°12' W 014°24'511.6
2017-Nov-25 14:30N 30°17' W 014°23'611.6
2017-Nov-25 14:00N 30°22' W 014°21'611.9
2017-Nov-25 13:30N 30°28' W 014°19'612.1
2017-Nov-25 13:00N 30°34' W 014°18'611.9
2017-Nov-25 12:30N 30°40' W 014°16'611.7
2017-Nov-25 12:00N 30°46' W 014°14'611.7
2017-Nov-25 11:28N 30°52' W 014°13'511.7
2017-Nov-25 11:00N 30°57' W 014°11'611.6
2017-Nov-25 10:29N 31°03' W 014°09'1711.2
2017-Nov-25 08:58N 31°19' W 014°04'511.0
2017-Nov-25 08:30N 31°24' W 014°03'611.2
2017-Nov-25 08:00N 31°30' W 014°02'611.3
2017-Nov-25 07:30N 31°35' W 014°00'611.3
2017-Nov-25 07:00N 31°41' W 013°59'611.5
2017-Nov-25 06:29N 31°47' W 013°57'611.7
2017-Nov-25 06:00N 31°52' W 013°55'1811.7
2017-Nov-25 04:27N 32°10' W 013°50'511.7
2017-Nov-25 04:00N 32°15' W 013°49'2112.0
2017-Nov-25 02:13N 32°35' W 013°43'312.4
2017-Nov-25 02:00N 32°38' W 013°42'22112.0
2017-Nov-24 07:34N 36°13' W 012°38'112.0
2017-Nov-24 07:29N 36°14' W 012°37'  
2017-Nov-20 00:31N 50°32' E 000°08'612.8
2017-Nov-20 00:01N 50°34' E 000°17'612.3
2017-Nov-19 23:31N 50°36' E 000°27'611.8
2017-Nov-19 23:00N 50°37' E 000°36'611.6
2017-Nov-19 22:31N 50°41' E 000°43'611.6
2017-Nov-19 22:01N 50°44' E 000°51'611.9
2017-Nov-19 21:31N 50°47' E 000°58'712.6
2017-Nov-19 21:00N 50°51' E 001°07'713.7
2017-Nov-19 20:30N 50°56' E 001°14'714.8
2017-Nov-19 20:00N 51°01' E 001°22'815.5
2017-Nov-19 19:30N 51°05' E 001°33'815.7
2017-Nov-19 19:01N 51°11' E 001°41'714.5
2017-Nov-19 18:31N 51°17' E 001°48'713.6
2017-Nov-19 18:00N 51°23' E 001°53'612.7
2017-Nov-19 17:30N 51°28' E 001°59'612.2
2017-Nov-19 17:01N 51°32' E 002°05'611.8
2017-Nov-19 16:30N 51°37' E 002°12'611.4
2017-Nov-19 16:00N 51°41' E 002°18'24510.1
2017-Nov-18 15:49N 55°15' E 005°39'3 9.7
2017-Nov-18 15:30N 55°18' E 005°40'210 8.0
2017-Nov-17 13:03N 57°49' E 010°07'2 9.2
2017-Nov-17 12:48N 57°49' E 010°11'3 9.2
2017-Nov-17 12:30N 57°49' E 010°16'5 9.6
2017-Nov-17 12:01N 57°49' E 010°25'5 9.7
2017-Nov-17 11:30N 57°48' E 010°34'5 9.4
2017-Nov-17 11:00N 57°48' E 010°43'5 9.8
2017-Nov-17 10:30N 57°46' E 010°51'611.1
2017-Nov-17 10:00N 57°42' E 010°59'611.5
2017-Nov-17 09:31N 57°38' E 011°06'611.5
2017-Nov-17 09:00N 57°34' E 011°14'611.4
2017-Nov-17 08:30N 57°30' E 011°22'511.0
2017-Nov-17 08:00N 57°25' E 011°27'611.8
2017-Nov-17 07:30N 57°20' E 011°31'611.7
2017-Nov-17 07:00N 57°14' E 011°35'611.2
2017-Nov-17 06:27N 57°08' E 011°39'611.1
2017-Nov-17 05:55N 57°03' E 011°42'10510.5
2017-Nov-16 19:54N 55°20' E 011°02'513.8
2017-Nov-16 19:30N 55°15' E 011°05'611.3
2017-Nov-16 19:00N 55°10' E 011°01'713.1
2017-Nov-16 18:31N 55°04' E 010°60'713.2
2017-Nov-16 18:01N 54°58' E 010°56'714.0
2017-Nov-16 17:31N 54°51' E 010°50'713.2
2017-Nov-16 17:00N 54°45' E 010°47'5 9.9
2017-Nov-16 16:30N 54°40' E 010°48'5 9.1
2017-Nov-16 16:01N 54°38' E 010°55'5 9.8
2017-Nov-16 15:31N 54°36' E 011°03'611.6
2017-Nov-16 15:00N 54°35' E 011°13'612.1
2017-Nov-16 14:31N 54°33' E 011°22'612.1
2017-Nov-16 14:01N 54°30' E 011°32'612.2
2017-Nov-16 13:30N 54°27' E 011°41'611.7
2017-Nov-16 13:00N 54°26' E 011°51'612.2
2017-Nov-16 12:30N 54°26' E 012°02'510.5
2017-Nov-16 12:00N 54°27' E 012°11'911.8
2017-Nov-16 11:13N 54°36' E 012°16'411.8
2017-Nov-16 10:52N 54°38' E 012°22'711.9
2017-Nov-16 10:18N 54°42' E 012°31'711.7
2017-Nov-16 09:41N 54°46' E 012°42'212.0
2017-Nov-16 09:30N 54°47' E 012°45'2712.3
2017-Nov-16 07:17N 54°57' E 013°29'612.6
2017-Nov-16 06:47N 54°59' E 013°39'412.7
2017-Nov-16 06:27N 55°01' E 013°46'612.7
2017-Nov-16 05:59N 55°03' E 013°56'612.2
2017-Nov-16 05:30N 55°05' E 014°05'612.8
2017-Nov-16 05:00N 55°10' E 014°12'  
Track history (hours):
 
Tides and Currents Weather Stations Pressure Air Temp Water Temp Dewpoint Dewpoint Depression Visibility Wind Speed Wind Dir Waves Ship Positions

Clipper Vision

Last reported at 2017-Nov-26 04:39 UTC. Time now 2017-Dec-18 09:13 UTC.
Position N 27°33' W 015°17'.
Warning: this ship's position is 22 days out of date.

Length 225 m; draft 13.5 m.

Type: Cargo ship. MMSI: 538006031.

Date/timePositionNaut miles runAvg speedWind from/ knotsBaromVisibWave heightAir tempDewpointWater temp
2017-Nov-26 04:39N 27°33' W 015°17'213.6
2017-Nov-26 04:30N 27°35' W 015°16'713.4
2017-Nov-26 04:00N 27°41' W 015°13'613.0
2017-Nov-26 03:30N 27°47' W 015°09'612.3
2017-Nov-26 03:00N 27°52' W 015°07'612.3
2017-Nov-26 02:30N 27°58' W 015°04'612.5
2017-Nov-26 02:00N 28°04' W 015°02'612.2
2017-Nov-26 01:30N 28°10' W 014°60'612.2
2017-Nov-26 01:00N 28°16' W 014°57'612.3
2017-Nov-26 00:30N 28°21' W 014°55'612.6
2017-Nov-26 00:00N 28°28' W 014°53'612.3
2017-Nov-25 23:30N 28°34' W 014°52'612.1
2017-Nov-25 23:00N 28°39' W 014°50'612.1
2017-Nov-25 22:30N 28°45' W 014°48'612.3
2017-Nov-25 22:00N 28°51' W 014°47'612.2
2017-Nov-25 21:30N 28°57' W 014°46'612.0
2017-Nov-25 21:00N 29°03' W 014°44'612.0
2017-Nov-25 20:30N 29°09' W 014°42'611.8
2017-Nov-25 20:00N 29°15' W 014°40'611.8
2017-Nov-25 19:30N 29°20' W 014°39'611.7
2017-Nov-25 19:00N 29°26' W 014°37'611.8
2017-Nov-25 18:30N 29°32' W 014°35'611.8
2017-Nov-25 18:00N 29°37' W 014°34'611.6
2017-Nov-25 17:30N 29°43' W 014°32'611.6
2017-Nov-25 17:00N 29°49' W 014°31'611.8
2017-Nov-25 16:30N 29°54' W 014°29'611.7
2017-Nov-25 16:00N 30°00' W 014°27'611.5
2017-Nov-25 15:30N 30°06' W 014°26'611.5
2017-Nov-25 14:57N 30°12' W 014°24'511.6
2017-Nov-25 14:30N 30°17' W 014°23'611.6
2017-Nov-25 14:00N 30°22' W 014°21'611.9
2017-Nov-25 13:30N 30°28' W 014°19'612.1
2017-Nov-25 13:00N 30°34' W 014°18'611.9
2017-Nov-25 12:30N 30°40' W 014°16'611.7
2017-Nov-25 12:00N 30°46' W 014°14'611.7
2017-Nov-25 11:28N 30°52' W 014°13'511.7
2017-Nov-25 11:00N 30°57' W 014°11'611.6
2017-Nov-25 10:29N 31°03' W 014°09'1711.2
2017-Nov-25 08:58N 31°19' W 014°04'511.0
2017-Nov-25 08:30N 31°24' W 014°03'611.2
2017-Nov-25 08:00N 31°30' W 014°02'611.3
2017-Nov-25 07:30N 31°35' W 014°00'611.3
2017-Nov-25 07:00N 31°41' W 013°59'611.5
2017-Nov-25 06:29N 31°47' W 013°57'611.7
2017-Nov-25 06:00N 31°52' W 013°55'1811.7
2017-Nov-25 04:27N 32°10' W 013°50'511.7
2017-Nov-25 04:00N 32°15' W 013°49'2112.0
2017-Nov-25 02:13N 32°35' W 013°43'312.4
2017-Nov-25 02:00N 32°38' W 013°42'22112.0
2017-Nov-24 07:34N 36°13' W 012°38'112.0
2017-Nov-24 07:29N 36°14' W 012°37'  
2017-Nov-20 00:31N 50°32' E 000°08'612.8
2017-Nov-20 00:01N 50°34' E 000°17'612.3
2017-Nov-19 23:31N 50°36' E 000°27'611.8
2017-Nov-19 23:00N 50°37' E 000°36'611.6
2017-Nov-19 22:31N 50°41' E 000°43'611.6
2017-Nov-19 22:01N 50°44' E 000°51'611.9
2017-Nov-19 21:31N 50°47' E 000°58'712.6
2017-Nov-19 21:00N 50°51' E 001°07'713.7
2017-Nov-19 20:30N 50°56' E 001°14'714.8
2017-Nov-19 20:00N 51°01' E 001°22'815.5
2017-Nov-19 19:30N 51°05' E 001°33'815.7
2017-Nov-19 19:01N 51°11' E 001°41'714.5
2017-Nov-19 18:31N 51°17' E 001°48'713.6
2017-Nov-19 18:00N 51°23' E 001°53'612.7
2017-Nov-19 17:30N 51°28' E 001°59'612.2
2017-Nov-19 17:01N 51°32' E 002°05'611.8
2017-Nov-19 16:30N 51°37' E 002°12'611.4
2017-Nov-19 16:00N 51°41' E 002°18'24510.1
2017-Nov-18 15:49N 55°15' E 005°39'3 9.7
2017-Nov-18 15:30N 55°18' E 005°40'210 8.0
2017-Nov-17 13:03N 57°49' E 010°07'2 9.2
2017-Nov-17 12:48N 57°49' E 010°11'3 9.2
2017-Nov-17 12:30N 57°49' E 010°16'5 9.6
2017-Nov-17 12:01N 57°49' E 010°25'5 9.7
2017-Nov-17 11:30N 57°48' E 010°34'5 9.4
2017-Nov-17 11:00N 57°48' E 010°43'5 9.8
2017-Nov-17 10:30N 57°46' E 010°51'611.1
2017-Nov-17 10:00N 57°42' E 010°59'611.5
2017-Nov-17 09:31N 57°38' E 011°06'611.5
2017-Nov-17 09:00N 57°34' E 011°14'611.4
2017-Nov-17 08:30N 57°30' E 011°22'511.0
2017-Nov-17 08:00N 57°25' E 011°27'611.8
2017-Nov-17 07:30N 57°20' E 011°31'611.7
2017-Nov-17 07:00N 57°14' E 011°35'611.2
2017-Nov-17 06:27N 57°08' E 011°39'611.1
2017-Nov-17 05:55N 57°03' E 011°42'10510.5
2017-Nov-16 19:54N 55°20' E 011°02'513.8
2017-Nov-16 19:30N 55°15' E 011°05'611.3
2017-Nov-16 19:00N 55°10' E 011°01'713.1
2017-Nov-16 18:31N 55°04' E 010°60'713.2
2017-Nov-16 18:01N 54°58' E 010°56'714.0
2017-Nov-16 17:31N 54°51' E 010°50'713.2
2017-Nov-16 17:00N 54°45' E 010°47'5 9.9
2017-Nov-16 16:30N 54°40' E 010°48'5 9.1
2017-Nov-16 16:01N 54°38' E 010°55'5 9.8
2017-Nov-16 15:31N 54°36' E 011°03'611.6
2017-Nov-16 15:00N 54°35' E 011°13'612.1
2017-Nov-16 14:31N 54°33' E 011°22'612.1
2017-Nov-16 14:01N 54°30' E 011°32'612.2
2017-Nov-16 13:30N 54°27' E 011°41'611.7
2017-Nov-16 13:00N 54°26' E 011°51'612.2
2017-Nov-16 12:30N 54°26' E 012°02'510.5
2017-Nov-16 12:00N 54°27' E 012°11'911.8
2017-Nov-16 11:13N 54°36' E 012°16'411.8
2017-Nov-16 10:52N 54°38' E 012°22'711.9
2017-Nov-16 10:18N 54°42' E 012°31'711.7
2017-Nov-16 09:41N 54°46' E 012°42'212.0
2017-Nov-16 09:30N 54°47' E 012°45'2712.3
2017-Nov-16 07:17N 54°57' E 013°29'612.6
2017-Nov-16 06:47N 54°59' E 013°39'412.7
2017-Nov-16 06:27N 55°01' E 013°46'612.7
2017-Nov-16 05:59N 55°03' E 013°56'612.2
2017-Nov-16 05:30N 55°05' E 014°05'612.8
2017-Nov-16 05:00N 55°10' E 014°12'  

Dump ship's entire track history